createdAt,value
2023-02-11T00:01:31.428Z,80.53
2023-02-11T00:04:01.818Z,81.44
2023-02-11T00:06:31.844Z,81.17
2023-02-11T00:09:00.160Z,81.29
2023-02-11T00:11:30.884Z,81.27
2023-02-11T00:14:02.329Z,81.81
2023-02-11T00:16:32.301Z,81.09
2023-02-11T00:19:01.228Z,81.70
2023-02-11T00:21:30.215Z,81.29
2023-02-11T00:23:59.957Z,81.13
2023-02-11T00:26:31.909Z,80.94
2023-02-11T00:29:03.987Z,81.68
2023-02-11T00:31:32.419Z,80.60
2023-02-11T00:34:00.727Z,81.73
2023-02-11T00:36:30.821Z,81.42
2023-02-11T00:39:01.050Z,81.33
2023-02-11T00:41:29.573Z,81.49
2023-02-11T00:43:57.852Z,81.01
2023-02-11T00:46:27.634Z,82.24
2023-02-11T00:48:57.787Z,82.16
2023-02-11T00:51:26.446Z,82.02
2023-02-11T00:53:55.379Z,81.85
2023-02-11T00:56:23.864Z,81.98
2023-02-11T00:58:52.191Z,82.90
2023-02-11T01:01:21.343Z,81.72
2023-02-11T01:03:51.150Z,81.89
2023-02-11T01:06:20.109Z,82.10
2023-02-11T01:08:48.489Z,82.59
2023-02-11T01:11:19.828Z,82.17
2023-02-11T01:13:50.063Z,82.40
2023-02-11T01:16:19.291Z,82.60
2023-02-11T01:18:48.224Z,82.89
2023-02-11T01:21:17.901Z,82.82
2023-02-11T01:23:46.423Z,82.04
2023-02-11T01:26:14.759Z,82.52
2023-02-11T01:28:43.483Z,82.49
2023-02-11T01:31:12.306Z,82.70
2023-02-11T01:33:40.694Z,83.38
2023-02-11T01:36:10.494Z,83.41
2023-02-11T01:38:41.135Z,83.60
2023-02-11T01:41:12.434Z,83.21
2023-02-11T01:43:45.150Z,82.75
2023-02-11T01:46:31.381Z,83.88
2023-02-11T01:49:06.117Z,83.61
2023-02-11T01:51:43.499Z,82.98
2023-02-11T01:54:36.143Z,83.26
2023-02-11T01:57:25.133Z,83.13
2023-02-11T02:00:11.957Z,83.25
2023-02-11T02:02:49.881Z,83.44
2023-02-11T02:05:28.613Z,83.59
2023-02-11T02:08:05.444Z,83.57
2023-02-11T02:10:36.917Z,83.67
2023-02-11T02:13:05.517Z,83.63
2023-02-11T02:15:36.920Z,84.28
2023-02-11T02:18:21.264Z,84.12
2023-02-11T02:22:00.128Z,83.68
2023-02-11T02:24:57.878Z,83.54
2023-02-11T02:27:39.425Z,84.83
2023-02-11T02:30:33.908Z,84.18
2023-02-11T02:33:23.299Z,84.15
2023-02-11T02:36:05.512Z,84.46
2023-02-11T02:38:39.554Z,84.92
2023-02-11T02:41:12.455Z,84.63
2023-02-11T02:43:44.075Z,84.88
2023-02-11T02:46:16.587Z,84.10
2023-02-11T02:48:46.939Z,84.72
2023-02-11T02:51:49.310Z,85.46
2023-02-11T02:54:44.770Z,84.59
2023-02-11T02:57:27.975Z,85.76
2023-02-11T03:00:16.239Z,85.22
2023-02-11T03:03:00.334Z,85.29
2023-02-11T03:05:38.710Z,84.43
2023-02-11T03:08:11.603Z,85.27
2023-02-11T03:10:45.206Z,85.63
2023-02-11T03:13:17.966Z,85.40
2023-02-11T03:15:50.253Z,85.25
2023-02-11T03:18:23.249Z,85.60
2023-02-11T03:20:55.974Z,85.14
2023-02-11T03:23:31.278Z,85.91
2023-02-11T03:26:04.509Z,85.31
2023-02-11T03:28:36.963Z,86.68
2023-02-11T03:31:18.126Z,86.59
2023-02-11T03:33:58.545Z,86.76
2023-02-11T03:36:34.386Z,85.78
2023-02-11T03:39:05.129Z,85.60
2023-02-11T03:41:35.138Z,86.06
2023-02-11T03:44:04.970Z,85.60
2023-02-11T03:46:38.435Z,86.63
2023-02-11T03:49:12.534Z,86.37
2023-02-11T03:51:42.514Z,86.07
2023-02-11T03:54:16.607Z,86.59
2023-02-11T03:56:53.165Z,86.25
2023-02-11T03:59:21.848Z,86.06
2023-02-11T04:01:50.194Z,86.44
2023-02-11T04:04:18.560Z,86.60
2023-02-11T04:06:48.299Z,87.26
2023-02-11T04:09:17.251Z,86.71
2023-02-11T04:11:45.500Z,86.78
2023-02-11T04:14:13.786Z,87.26
2023-02-11T04:16:42.185Z,86.27
2023-02-11T04:19:10.634Z,87.18
2023-02-11T04:21:38.936Z,87.07
2023-02-11T04:24:08.782Z,86.99
2023-02-11T04:26:37.056Z,86.22
2023-02-11T04:29:05.427Z,86.74
2023-02-11T04:31:33.909Z,86.60
2023-02-11T04:34:02.161Z,86.48
2023-02-11T04:36:30.487Z,86.42
2023-02-11T04:38:58.766Z,86.64
2023-02-11T04:41:28.667Z,87.13
2023-02-11T04:43:57.244Z,87.21
2023-02-11T04:46:25.784Z,87.09
2023-02-11T04:48:54.311Z,86.99
2023-02-11T04:51:22.804Z,87.19
2023-02-11T04:53:51.135Z,87.83
2023-02-11T04:56:19.441Z,87.47
2023-02-11T04:58:50.105Z,87.26
2023-02-11T05:01:18.849Z,87.19
2023-02-11T05:03:47.253Z,87.23
2023-02-11T05:06:15.720Z,87.73
2023-02-11T05:08:44.018Z,87.21
2023-02-11T05:11:27.729Z,87.60
2023-02-11T05:13:57.662Z,87.83
2023-02-11T05:16:25.994Z,87.95
2023-02-11T05:18:55.748Z,88.21
2023-02-11T05:21:24.326Z,87.35
2023-02-11T05:23:52.752Z,87.54
2023-02-11T05:26:21.121Z,87.27
2023-02-11T05:28:50.354Z,87.48
2023-02-11T05:31:20.172Z,88.52
2023-02-11T05:33:48.533Z,88.20
2023-02-11T05:36:17.226Z,88.47
2023-02-11T05:38:45.550Z,88.18
2023-02-11T05:41:14.410Z,88.13
2023-02-11T05:43:42.697Z,87.46
2023-02-11T05:46:11.105Z,87.71
2023-02-11T05:48:40.762Z,88.12
2023-02-11T05:51:09.067Z,87.85
2023-02-11T05:53:37.667Z,87.73
2023-02-11T05:56:07.290Z,87.61
2023-02-11T05:58:35.649Z,88.67
2023-02-11T06:01:04.033Z,87.72
2023-02-11T06:03:32.324Z,88.63
2023-02-11T06:06:01.919Z,87.91
2023-02-11T06:08:30.186Z,88.65
2023-02-11T06:10:58.523Z,88.08
2023-02-11T06:13:26.949Z,88.52
2023-02-11T06:15:59.113Z,88.43
2023-02-11T06:18:27.497Z,88.23
2023-02-11T06:20:56.253Z,87.91
2023-02-11T06:23:27.495Z,88.35
2023-02-11T06:26:02.749Z,87.38
2023-02-11T06:28:32.348Z,88.72
2023-02-11T06:31:06.739Z,88.20
2023-02-11T06:33:35.930Z,88.62
2023-02-11T06:36:06.643Z,88.98
2023-02-11T06:38:36.276Z,89.07
2023-02-11T06:41:04.803Z,88.28
2023-02-11T06:43:33.205Z,89.03
2023-02-11T06:46:01.561Z,88.39
2023-02-11T06:48:29.812Z,88.97
2023-02-11T06:50:58.339Z,88.51
2023-02-11T06:53:26.701Z,89.18
2023-02-11T06:55:56.424Z,88.27
2023-02-11T06:58:24.917Z,89.10
2023-02-11T07:00:53.778Z,89.21
2023-02-11T07:03:22.148Z,88.56
2023-02-11T07:05:50.861Z,89.55
2023-02-11T07:08:19.467Z,89.03
2023-02-11T07:10:47.710Z,88.71
2023-02-11T07:13:17.388Z,89.17
2023-02-11T07:15:45.743Z,88.76
2023-02-11T07:18:14.807Z,89.10
2023-02-11T07:20:43.610Z,88.99
2023-02-11T07:23:12.037Z,89.33
2023-02-11T07:25:40.388Z,88.50
2023-02-11T07:28:08.833Z,88.83
2023-02-11T07:30:38.494Z,88.57
2023-02-11T07:33:06.795Z,88.75
2023-02-11T07:35:35.143Z,88.71
2023-02-11T07:38:03.516Z,89.53
2023-02-11T07:40:32.350Z,88.43
2023-02-11T07:43:02.910Z,89.28
2023-02-11T07:45:31.209Z,88.62
2023-02-11T07:48:00.929Z,89.19
2023-02-11T07:50:29.292Z,89.29
2023-02-11T07:52:57.534Z,88.78
2023-02-11T07:55:25.992Z,88.71
2023-02-11T07:57:54.480Z,88.68
2023-02-11T08:00:23.199Z,89.26
2023-02-11T08:02:51.786Z,89.50
2023-02-11T08:05:21.516Z,89.50
2023-02-11T08:07:53.204Z,89.23
2023-02-11T08:10:21.905Z,88.90
2023-02-11T08:12:50.263Z,88.90
2023-02-11T08:15:18.816Z,88.29
2023-02-11T08:17:47.255Z,89.36
2023-02-11T08:20:15.607Z,89.34
2023-02-11T08:22:45.457Z,88.55
2023-02-11T08:25:13.711Z,89.25
2023-02-11T08:27:41.978Z,88.71
2023-02-11T08:30:12.243Z,88.46
2023-02-11T08:32:40.626Z,88.65
2023-02-11T08:35:12.432Z,88.30
2023-02-11T08:37:40.816Z,88.32
2023-02-11T08:40:11.579Z,88.53
2023-02-11T08:42:40.153Z,88.82
2023-02-11T08:45:10.485Z,88.41
2023-02-11T08:47:39.166Z,88.00
2023-02-11T08:50:08.661Z,88.79
2023-02-11T08:52:38.182Z,88.65
2023-02-11T08:55:07.701Z,88.13
2023-02-11T08:57:37.629Z,88.75
2023-02-11T09:00:07.782Z,88.69
2023-02-11T09:02:36.146Z,87.85
2023-02-11T09:05:04.841Z,88.05
2023-02-11T09:07:33.311Z,88.02
2023-02-11T09:10:02.145Z,87.56
2023-02-11T09:12:30.500Z,88.27
2023-02-11T09:15:00.666Z,88.53
2023-02-11T09:17:28.935Z,87.60
2023-02-11T09:19:57.523Z,87.96
2023-02-11T09:22:25.876Z,88.05
2023-02-11T09:24:55.111Z,87.75
2023-02-11T09:27:28.067Z,87.70
2023-02-11T09:29:56.359Z,87.48
2023-02-11T09:32:26.109Z,87.21
2023-02-11T09:34:55.138Z,87.10
2023-02-11T09:37:23.622Z,87.53
2023-02-11T09:39:52.133Z,86.71
2023-02-11T09:42:44.889Z,86.66
2023-02-11T09:45:19.999Z,86.54
2023-02-11T09:47:55.475Z,86.43
2023-02-11T09:50:32.248Z,86.53
2023-02-11T09:53:04.422Z,86.61
2023-02-11T09:55:39.606Z,86.68
2023-02-11T09:58:15.136Z,86.13
2023-02-11T10:00:49.853Z,86.23
2023-02-11T10:04:06.346Z,85.99
2023-02-11T10:06:44.864Z,85.92
2023-02-11T10:09:56.676Z,85.39
2023-02-11T10:12:48.847Z,85.65
2023-02-11T10:15:28.216Z,85.42
2023-02-11T10:18:18.028Z,85.52
2023-02-11T10:21:07.911Z,85.22
2023-02-11T10:23:41.829Z,85.16
2023-02-11T10:26:14.964Z,85.30
2023-02-11T10:28:47.640Z,85.10
2023-02-11T10:31:22.191Z,85.05
2023-02-11T10:33:57.753Z,84.50
2023-02-11T10:36:32.422Z,84.98
2023-02-11T10:39:01.726Z,84.71
2023-02-11T10:41:35.583Z,84.48
2023-02-11T10:44:04.629Z,84.35
2023-02-11T10:46:37.766Z,84.12
2023-02-11T10:49:06.464Z,84.07
2023-02-11T10:51:37.715Z,83.89
2023-02-11T10:54:21.347Z,83.69
2023-02-11T10:56:52.196Z,83.46
2023-02-11T10:59:28.896Z,83.41
2023-02-11T11:02:01.438Z,83.18
2023-02-11T11:04:45.286Z,82.93
2023-02-11T11:07:23.356Z,82.53
2023-02-11T11:09:56.813Z,82.82
2023-02-11T11:12:36.669Z,82.55
2023-02-11T11:15:19.959Z,82.64
2023-02-11T11:17:48.921Z,82.56
2023-02-11T11:20:29.219Z,82.32
2023-02-11T11:23:17.511Z,82.27
2023-02-11T11:25:47.772Z,82.28
2023-02-11T11:28:25.242Z,82.18
2023-02-11T11:30:55.519Z,82.09
2023-02-11T11:33:29.464Z,82.08
2023-02-11T11:36:04.845Z,81.91
2023-02-11T11:38:38.050Z,82.04
2023-02-11T11:41:25.407Z,81.80
2023-02-11T11:44:24.748Z,81.49
2023-02-11T11:47:27.625Z,81.42
2023-02-11T11:50:24.727Z,81.77
2023-02-11T11:53:01.542Z,81.37
2023-02-11T11:55:40.011Z,81.49
2023-02-11T11:58:16.410Z,81.12
2023-02-11T12:00:54.880Z,81.01
2023-02-11T12:04:04.541Z,81.03
2023-02-11T12:06:42.738Z,81.05
2023-02-11T12:09:22.107Z,80.95
2023-02-11T12:12:13.883Z,80.82
2023-02-11T12:14:56.285Z,80.45
2023-02-11T12:17:45.801Z,80.48
2023-02-11T12:20:26.154Z,80.41
2023-02-11T12:23:15.976Z,80.83
2023-02-11T12:25:53.875Z,80.53
2023-02-11T12:28:38.492Z,80.68
2023-02-11T12:31:31.031Z,80.54
2023-02-11T12:34:32.149Z,80.28
2023-02-11T12:37:10.404Z,80.44
2023-02-11T12:39:51.506Z,80.28
2023-02-11T12:43:11.083Z,80.35
2023-02-11T12:46:11.720Z,79.93
2023-02-11T12:49:16.155Z,80.06
2023-02-11T12:52:01.508Z,79.81
2023-02-11T12:54:34.616Z,79.99
2023-02-11T12:57:11.403Z,79.97
2023-02-11T12:59:50.928Z,79.87
2023-02-11T13:02:31.415Z,79.76
2023-02-11T13:05:06.491Z,80.00
2023-02-11T13:07:40.525Z,79.70
2023-02-11T13:10:25.818Z,79.83
2023-02-11T13:13:14.440Z,79.56
2023-02-11T13:15:48.456Z,79.94
2023-02-11T13:18:31.647Z,79.61
2023-02-11T13:21:17.789Z,79.58
2023-02-11T13:23:53.442Z,79.78
2023-02-11T13:26:27.139Z,79.78
2023-02-11T13:29:07.823Z,79.76
2023-02-11T13:31:36.287Z,79.97
2023-02-11T13:34:26.995Z,80.14
2023-02-11T13:36:59.837Z,79.95
2023-02-11T13:39:28.209Z,79.84
2023-02-11T13:42:05.342Z,80.14
2023-02-11T13:44:36.204Z,79.88
2023-02-11T13:47:06.652Z,79.84
2023-02-11T13:49:41.513Z,80.21
2023-02-11T13:52:24.722Z,80.18
2023-02-11T13:54:56.856Z,79.90
2023-02-11T13:57:33.094Z,80.14
2023-02-11T14:00:03.120Z,80.16
2023-02-11T14:02:52.296Z,80.33
2023-02-11T14:05:49.285Z,80.02
2023-02-11T14:08:39.769Z,79.89
2023-02-11T14:11:14.745Z,80.07
2023-02-11T14:14:21.924Z,80.23
2023-02-11T14:17:31.992Z,79.90
2023-02-11T14:20:04.213Z,80.08
2023-02-11T14:22:46.996Z,80.22
2023-02-11T14:25:23.895Z,80.11
2023-02-11T14:27:57.951Z,80.14
2023-02-11T14:30:44.386Z,80.13
2023-02-11T14:33:50.614Z,80.37
2023-02-11T14:36:55.730Z,80.16
2023-02-11T14:39:40.342Z,80.32
2023-02-11T14:42:20.821Z,79.94
2023-02-11T14:44:51.591Z,79.98
2023-02-11T14:47:24.258Z,79.96
2023-02-11T14:49:52.718Z,80.05
2023-02-11T14:52:29.891Z,80.14
2023-02-11T14:55:11.514Z,79.85
2023-02-11T14:57:39.826Z,79.76
2023-02-11T15:00:23.556Z,79.70
2023-02-11T15:02:51.995Z,79.61
2023-02-11T15:05:27.302Z,79.83
2023-02-11T15:07:58.958Z,79.95
2023-02-11T15:10:34.321Z,79.91
2023-02-11T15:13:04.596Z,80.22
2023-02-11T15:15:36.933Z,80.19
2023-02-11T15:18:06.767Z,80.15
2023-02-11T15:20:36.008Z,80.22
2023-02-11T15:23:08.472Z,80.61
2023-02-11T15:25:45.738Z,80.27
2023-02-11T15:28:24.408Z,80.19
2023-02-11T15:31:01.200Z,80.13
2023-02-11T15:33:32.057Z,80.40
2023-02-11T15:36:01.892Z,80.44
2023-02-11T15:38:30.907Z,80.50
2023-02-11T15:41:03.733Z,80.57
2023-02-11T15:43:47.158Z,80.28
2023-02-11T15:46:18.641Z,80.58
2023-02-11T15:48:50.399Z,80.45
2023-02-11T15:51:23.181Z,80.62
2023-02-11T15:53:56.784Z,80.58
2023-02-11T15:56:30.882Z,80.77
2023-02-11T15:59:02.291Z,80.34
2023-02-11T16:01:34.059Z,80.95
2023-02-11T16:04:03.633Z,80.99
2023-02-11T16:06:44.435Z,81.19
2023-02-11T16:09:32.820Z,81.05
2023-02-11T16:12:07.580Z,81.26
2023-02-11T16:14:39.257Z,81.32
2023-02-11T16:17:10.983Z,81.12
2023-02-11T16:19:45.621Z,81.30
2023-02-11T16:22:19.624Z,81.34
2023-02-11T16:24:50.082Z,81.15
2023-02-11T16:27:25.470Z,81.60
2023-02-11T16:29:53.953Z,81.42
2023-02-11T16:32:25.485Z,81.86
2023-02-11T16:34:57.922Z,81.71
2023-02-11T16:37:26.786Z,81.14
2023-02-11T16:39:55.754Z,81.85
2023-02-11T16:42:25.665Z,81.84
2023-02-11T16:44:54.042Z,81.72
2023-02-11T16:47:26.477Z,82.10
2023-02-11T16:49:55.502Z,82.07
2023-02-11T16:52:24.578Z,82.08
2023-02-11T16:54:53.538Z,81.86
2023-02-11T16:57:29.670Z,82.06
2023-02-11T16:59:59.287Z,81.78
2023-02-11T17:02:30.724Z,81.87
2023-02-11T17:05:01.911Z,81.99
2023-02-11T17:07:30.866Z,82.14
2023-02-11T17:09:59.794Z,81.98
2023-02-11T17:12:29.460Z,82.33
2023-02-11T17:14:57.920Z,82.29
2023-02-11T17:17:26.252Z,82.29
2023-02-11T17:19:54.546Z,82.67
2023-02-11T17:22:22.785Z,82.23
2023-02-11T17:24:51.425Z,82.73
2023-02-11T17:27:19.764Z,82.24
2023-02-11T17:29:49.443Z,82.68
2023-02-11T17:32:18.045Z,82.56
2023-02-11T17:34:46.514Z,82.68
2023-02-11T17:37:14.737Z,82.52
2023-02-11T17:39:44.685Z,83.18
2023-02-11T17:42:14.600Z,83.05
2023-02-11T17:44:44.716Z,82.96
2023-02-11T17:47:14.478Z,82.94
2023-02-11T17:49:43.455Z,83.20
2023-02-11T17:52:11.960Z,83.51
2023-02-11T17:54:40.688Z,83.49
2023-02-11T17:57:08.983Z,83.16
2023-02-11T17:59:37.697Z,83.31
2023-02-11T18:02:07.230Z,83.15
2023-02-11T18:04:37.309Z,83.47
2023-02-11T18:07:05.671Z,82.74
2023-02-11T18:09:39.051Z,83.59
2023-02-11T18:12:08.548Z,83.28
2023-02-11T18:14:39.023Z,82.85
2023-02-11T18:17:07.860Z,83.56
2023-02-11T18:19:38.226Z,83.36
2023-02-11T18:22:06.761Z,83.06
2023-02-11T18:24:35.071Z,83.23
2023-02-11T18:27:03.623Z,83.96
2023-02-11T18:29:32.060Z,83.62
2023-02-11T18:32:00.837Z,83.75
2023-02-11T18:34:29.388Z,83.64
2023-02-11T18:36:59.372Z,84.20
2023-02-11T18:39:27.715Z,84.82
2023-02-11T18:41:58.960Z,84.29
2023-02-11T18:44:27.461Z,85.24
2023-02-11T18:46:56.124Z,84.54
2023-02-11T18:49:24.549Z,84.54
2023-02-11T18:51:53.293Z,84.74
2023-02-11T18:54:23.133Z,84.43
2023-02-11T18:56:51.614Z,85.00
2023-02-11T18:59:19.960Z,85.62
2023-02-11T19:01:48.481Z,85.09
2023-02-11T19:04:20.106Z,85.52
2023-02-11T19:06:50.387Z,85.50
2023-02-11T19:09:20.493Z,86.43
2023-02-11T19:11:50.906Z,85.87
2023-02-11T19:14:24.538Z,85.84
2023-02-11T19:16:55.263Z,86.69
2023-02-11T19:19:26.987Z,87.31
2023-02-11T19:21:56.094Z,86.29
2023-02-11T19:24:28.710Z,86.25
2023-02-11T19:27:02.092Z,86.02
2023-02-11T19:29:32.148Z,86.52
2023-02-11T19:32:00.663Z,86.25
2023-02-11T19:34:29.434Z,86.92
2023-02-11T19:36:59.894Z,87.18
2023-02-11T19:39:28.605Z,87.15
2023-02-11T19:41:58.525Z,87.53
2023-02-11T19:44:27.037Z,87.56
2023-02-11T19:46:55.534Z,87.07
2023-02-11T19:49:25.864Z,87.33
2023-02-11T19:51:55.569Z,86.89
2023-02-11T19:54:24.758Z,86.99
2023-02-11T19:56:53.517Z,86.74
2023-02-11T19:59:23.389Z,87.00
2023-02-11T20:01:53.156Z,86.96
2023-02-11T20:04:21.621Z,87.19
2023-02-11T20:06:49.965Z,87.62
2023-02-11T20:09:18.292Z,87.24
2023-02-11T20:11:46.794Z,86.74
2023-02-11T20:14:15.823Z,86.62
2023-02-11T20:16:49.607Z,87.08
2023-02-11T20:19:20.048Z,87.06
2023-02-11T20:21:52.217Z,87.54
2023-02-11T20:24:21.760Z,87.11
2023-02-11T20:26:55.269Z,87.58
2023-02-11T20:29:24.893Z,87.74
2023-02-11T20:31:55.443Z,87.79
2023-02-11T20:34:25.233Z,87.13
2023-02-11T20:36:54.181Z,87.78
2023-02-11T20:39:24.154Z,87.50
2023-02-11T20:41:53.865Z,87.26
2023-02-11T20:44:22.898Z,88.03
2023-02-11T20:46:54.923Z,87.30
2023-02-11T20:49:27.164Z,88.30
2023-02-11T20:51:56.816Z,87.20
2023-02-11T20:54:26.206Z,87.76
2023-02-11T20:56:56.877Z,87.98
2023-02-11T20:59:25.696Z,88.20
2023-02-11T21:01:57.462Z,87.97
2023-02-11T21:04:28.118Z,88.23
2023-02-11T21:06:59.043Z,87.84
2023-02-11T21:09:30.847Z,87.67
2023-02-11T21:11:59.438Z,87.34
2023-02-11T21:14:28.355Z,87.47
2023-02-11T21:16:58.644Z,87.97
2023-02-11T21:19:27.193Z,87.82
2023-02-11T21:21:57.316Z,88.23
2023-02-11T21:24:25.874Z,88.15
2023-02-11T21:26:54.131Z,88.04
2023-02-11T21:29:22.697Z,87.42
2023-02-11T21:31:51.491Z,87.42
2023-02-11T21:34:21.916Z,87.62
2023-02-11T21:36:51.339Z,88.25
2023-02-11T21:39:20.472Z,87.84
2023-02-11T21:41:48.900Z,88.23
2023-02-11T21:44:17.286Z,87.88
2023-02-11T21:46:45.899Z,88.55
2023-02-11T21:49:14.578Z,88.67
2023-02-11T21:51:44.252Z,87.75
2023-02-11T21:54:13.046Z,87.65
2023-02-11T21:56:41.538Z,88.40
2023-02-11T21:59:13.154Z,88.64
2023-02-11T22:01:41.518Z,88.08
2023-02-11T22:04:10.879Z,87.62
2023-02-11T22:06:39.615Z,88.32
2023-02-11T22:09:11.840Z,88.16
2023-02-11T22:11:40.344Z,87.46
2023-02-11T22:14:09.419Z,87.95
2023-02-11T22:16:38.212Z,88.50
2023-02-11T22:19:07.672Z,88.57
2023-02-11T22:21:36.373Z,87.33
2023-02-11T22:24:05.367Z,88.42
2023-02-11T22:26:35.781Z,88.16
2023-02-11T22:29:04.182Z,88.12
2023-02-11T22:31:35.311Z,88.61
2023-02-11T22:34:05.733Z,88.83
2023-02-11T22:36:36.815Z,88.00
2023-02-11T22:39:08.421Z,87.39
2023-02-11T22:41:39.297Z,88.28
2023-02-11T22:44:07.842Z,88.48
2023-02-11T22:46:37.987Z,88.12
2023-02-11T22:49:07.799Z,88.57
2023-02-11T22:51:36.648Z,88.42
2023-02-11T22:54:08.025Z,88.42
2023-02-11T22:56:37.925Z,87.63
2023-02-11T22:59:09.093Z,88.36
2023-02-11T23:01:37.538Z,88.17
2023-02-11T23:04:08.643Z,89.38
2023-02-11T23:06:37.362Z,88.31
2023-02-11T23:09:06.503Z,89.42
2023-02-11T23:11:35.660Z,88.33
2023-02-11T23:14:06.324Z,89.14
2023-02-11T23:16:36.111Z,88.79
2023-02-11T23:19:08.330Z,88.25
2023-02-11T23:21:39.909Z,88.44
2023-02-11T23:24:11.831Z,88.57
2023-02-11T23:26:41.941Z,87.88
2023-02-11T23:29:12.857Z,89.17
2023-02-11T23:31:45.987Z,88.60
2023-02-11T23:34:17.242Z,88.61
2023-02-11T23:36:45.927Z,89.06
2023-02-11T23:39:17.163Z,89.74
2023-02-11T23:41:45.934Z,88.95
2023-02-11T23:44:15.613Z,89.00
2023-02-11T23:46:43.991Z,89.01
2023-02-11T23:49:12.337Z,88.15
2023-02-11T23:51:40.788Z,89.44
2023-02-11T23:54:09.132Z,89.08
2023-02-11T23:56:39.059Z,89.05
2023-02-11T23:59:07.909Z,88.43
